sensor_id;sensor_type;location;lat;lon;timestamp;P1;durP1;ratioP1;P2;durP2;ratioP2
50066;SDS011;35952;52.524;13.340;2023-06-22T00:01:08;18.00;;;15.03;;
50066;SDS011;35952;52.524;13.340;2023-06-22T00:03:34;16.17;;;14.77;;
50066;SDS011;35952;52.524;13.340;2023-06-22T00:05:59;16.47;;;15.00;;
50066;SDS011;35952;52.524;13.340;2023-06-22T00:08:25;15.07;;;13.77;;
50066;SDS011;35952;52.524;13.340;2023-06-22T00:10:50;17.00;;;15.50;;
50066;SDS011;35952;52.524;13.340;2023-06-22T00:13:16;14.57;;;13.37;;
50066;SDS011;35952;52.524;13.340;2023-06-22T00:15:42;14.50;;;13.30;;
50066;SDS011;35952;52.524;13.340;2023-06-22T00:18:09;17.43;;;15.67;;
50066;SDS011;35952;52.524;13.340;2023-06-22T00:20:35;17.03;;;15.43;;
50066;SDS011;35952;52.524;13.340;2023-06-22T00:23:05;17.20;;;15.70;;
50066;SDS011;35952;52.524;13.340;2023-06-22T00:25:36;14.93;;;13.63;;
50066;SDS011;35952;52.524;13.340;2023-06-22T00:28:03;16.60;;;14.93;;
50066;SDS011;35952;52.524;13.340;2023-06-22T00:30:30;15.60;;;14.07;;
50066;SDS011;35952;52.524;13.340;2023-06-22T00:32:56;15.77;;;14.27;;
50066;SDS011;35952;52.524;13.340;2023-06-22T00:35:22;15.93;;;14.57;;
50066;SDS011;35952;52.524;13.340;2023-06-22T00:37:47;14.90;;;13.60;;
50066;SDS011;35952;52.524;13.340;2023-06-22T00:40:13;17.10;;;13.20;;
50066;SDS011;35952;52.524;13.340;2023-06-22T00:42:39;15.40;;;13.90;;
50066;SDS011;35952;52.524;13.340;2023-06-22T00:45:06;15.83;;;14.43;;
50066;SDS011;35952;52.524;13.340;2023-06-22T00:47:32;15.43;;;14.23;;
50066;SDS011;35952;52.524;13.340;2023-06-22T00:49:59;15.13;;;13.90;;
50066;SDS011;35952;52.524;13.340;2023-06-22T00:52:25;14.63;;;13.30;;
50066;SDS011;35952;52.524;13.340;2023-06-22T00:54:54;15.10;;;13.70;;
50066;SDS011;35952;52.524;13.340;2023-06-22T00:57:21;15.70;;;14.27;;
50066;SDS011;35952;52.524;13.340;2023-06-22T00:59:50;14.23;;;13.03;;
50066;SDS011;35952;52.524;13.340;2023-06-22T01:02:16;15.40;;;14.00;;
50066;SDS011;35952;52.524;13.340;2023-06-22T01:04:41;15.17;;;13.80;;
50066;SDS011;35952;52.524;13.340;2023-06-22T01:07:13;17.33;;;15.63;;
50066;SDS011;35952;52.524;13.340;2023-06-22T01:12:43;15.90;;;14.43;;
50066;SDS011;35952;52.524;13.340;2023-06-22T01:15:14;15.73;;;14.23;;
50066;SDS011;35952;52.524;13.340;2023-06-22T01:17:45;15.67;;;14.33;;
50066;SDS011;35952;52.524;13.340;2023-06-22T01:20:13;15.93;;;14.43;;
50066;SDS011;35952;52.524;13.340;2023-06-22T01:22:45;15.47;;;13.90;;
50066;SDS011;35952;52.524;13.340;2023-06-22T01:25:36;15.30;;;14.00;;
50066;SDS011;35952;52.524;13.340;2023-06-22T01:28:18;15.63;;;14.23;;
50066;SDS011;35952;52.524;13.340;2023-06-22T01:31:07;15.73;;;14.13;;
50066;SDS011;35952;52.524;13.340;2023-06-22T01:33:37;16.07;;;14.60;;
50066;SDS011;35952;52.524;13.340;2023-06-22T01:36:05;15.77;;;14.30;;
50066;SDS011;35952;52.524;13.340;2023-06-22T01:38:32;15.87;;;14.40;;
50066;SDS011;35952;52.524;13.340;2023-06-22T01:40:58;16.30;;;14.93;;
50066;SDS011;35952;52.524;13.340;2023-06-22T01:43:25;17.00;;;15.40;;
50066;SDS011;35952;52.524;13.340;2023-06-22T01:45:51;14.53;;;13.33;;
50066;SDS011;35952;52.524;13.340;2023-06-22T01:48:18;15.57;;;13.90;;
50066;SDS011;35952;52.524;13.340;2023-06-22T01:50:44;16.93;;;15.43;;
50066;SDS011;35952;52.524;13.340;2023-06-22T01:53:10;16.33;;;14.93;;
50066;SDS011;35952;52.524;13.340;2023-06-22T01:55:36;15.50;;;14.10;;
50066;SDS011;35952;52.524;13.340;2023-06-22T01:58:01;16.13;;;14.60;;
50066;SDS011;35952;52.524;13.340;2023-06-22T02:00:27;16.57;;;15.00;;
50066;SDS011;35952;52.524;13.340;2023-06-22T02:02:59;19.70;;;16.07;;
50066;SDS011;35952;52.524;13.340;2023-06-22T02:05:29;16.17;;;14.77;;
50066;SDS011;35952;52.524;13.340;2023-06-22T02:10:31;16.43;;;15.03;;
50066;SDS011;35952;52.524;13.340;2023-06-22T02:12:57;16.87;;;15.27;;
50066;SDS011;35952;52.524;13.340;2023-06-22T02:15:24;17.27;;;15.53;;
50066;SDS011;35952;52.524;13.340;2023-06-22T02:17:50;18.40;;;16.53;;
50066;SDS011;35952;52.524;13.340;2023-06-22T02:20:16;17.97;;;16.37;;
50066;SDS011;35952;52.524;13.340;2023-06-22T02:22:42;19.07;;;17.43;;
50066;SDS011;35952;52.524;13.340;2023-06-22T02:25:07;20.40;;;18.30;;
50066;SDS011;35952;52.524;13.340;2023-06-22T02:27:33;18.00;;;16.40;;
50066;SDS011;35952;52.524;13.340;2023-06-22T02:29:59;18.53;;;16.73;;
50066;SDS011;35952;52.524;13.340;2023-06-22T02:32:24;19.17;;;17.37;;
50066;SDS011;35952;52.524;13.340;2023-06-22T02:34:50;19.60;;;17.70;;
50066;SDS011;35952;52.524;13.340;2023-06-22T02:37:15;19.90;;;18.00;;
50066;SDS011;35952;52.524;13.340;2023-06-22T02:39:41;19.30;;;17.40;;
50066;SDS011;35952;52.524;13.340;2023-06-22T02:42:07;20.07;;;18.07;;
50066;SDS011;35952;52.524;13.340;2023-06-22T02:44:32;19.73;;;17.93;;
50066;SDS011;35952;52.524;13.340;2023-06-22T02:46:58;21.67;;;19.70;;
50066;SDS011;35952;52.524;13.340;2023-06-22T02:49:23;21.87;;;19.50;;
50066;SDS011;35952;52.524;13.340;2023-06-22T02:51:49;21.37;;;19.20;;
50066;SDS011;35952;52.524;13.340;2023-06-22T02:54:15;20.60;;;18.40;;
50066;SDS011;35952;52.524;13.340;2023-06-22T02:56:41;22.93;;;20.63;;
50066;SDS011;35952;52.524;13.340;2023-06-22T02:59:08;22.77;;;20.67;;
50066;SDS011;35952;52.524;13.340;2023-06-22T03:01:35;21.60;;;19.63;;
50066;SDS011;35952;52.524;13.340;2023-06-22T03:04:04;19.67;;;17.77;;
50066;SDS011;35952;52.524;13.340;2023-06-22T03:06:34;20.27;;;18.23;;
50066;SDS011;35952;52.524;13.340;2023-06-22T03:09:01;20.73;;;18.53;;
50066;SDS011;35952;52.524;13.340;2023-06-22T03:11:32;21.57;;;19.43;;
50066;SDS011;35952;52.524;13.340;2023-06-22T03:13:59;21.10;;;19.13;;
50066;SDS011;35952;52.524;13.340;2023-06-22T03:16:25;21.90;;;19.60;;
50066;SDS011;35952;52.524;13.340;2023-06-22T03:18:51;22.77;;;20.13;;
50066;SDS011;35952;52.524;13.340;2023-06-22T03:21:16;21.00;;;19.10;;
50066;SDS011;35952;52.524;13.340;2023-06-22T03:23:42;18.93;;;17.20;;
50066;SDS011;35952;52.524;13.340;2023-06-22T03:26:11;20.03;;;18.13;;
50066;SDS011;35952;52.524;13.340;2023-06-22T03:28:39;27.10;;;18.90;;
50066;SDS011;35952;52.524;13.340;2023-06-22T03:31:05;19.03;;;17.33;;
50066;SDS011;35952;52.524;13.340;2023-06-22T03:33:31;18.50;;;16.90;;
50066;SDS011;35952;52.524;13.340;2023-06-22T03:35:57;17.10;;;15.60;;
50066;SDS011;35952;52.524;13.340;2023-06-22T03:38:23;17.43;;;15.83;;
50066;SDS011;35952;52.524;13.340;2023-06-22T03:40:48;18.40;;;16.53;;
50066;SDS011;35952;52.524;13.340;2023-06-22T03:43:13;17.23;;;15.50;;
50066;SDS011;35952;52.524;13.340;2023-06-22T03:45:39;16.13;;;14.43;;
50066;SDS011;35952;52.524;13.340;2023-06-22T03:48:05;15.27;;;13.80;;
50066;SDS011;35952;52.524;13.340;2023-06-22T03:50:30;15.50;;;14.30;;
50066;SDS011;35952;52.524;13.340;2023-06-22T03:52:56;14.53;;;13.13;;
50066;SDS011;35952;52.524;13.340;2023-06-22T03:55:21;14.17;;;12.97;;
50066;SDS011;35952;52.524;13.340;2023-06-22T03:57:47;18.97;;;14.37;;
50066;SDS011;35952;52.524;13.340;2023-06-22T04:00:13;13.97;;;12.77;;
50066;SDS011;35952;52.524;13.340;2023-06-22T04:02:40;17.40;;;14.57;;
50066;SDS011;35952;52.524;13.340;2023-06-22T04:05:08;18.40;;;13.67;;
50066;SDS011;35952;52.524;13.340;2023-06-22T04:07:34;14.83;;;13.37;;
50066;SDS011;35952;52.524;13.340;2023-06-22T04:09:59;16.93;;;13.33;;
50066;SDS011;35952;52.524;13.340;2023-06-22T04:12:24;14.57;;;13.27;;
50066;SDS011;35952;52.524;13.340;2023-06-22T04:14:50;14.00;;;12.70;;
50066;SDS011;35952;52.524;13.340;2023-06-22T04:17:15;12.73;;;11.50;;
50066;SDS011;35952;52.524;13.340;2023-06-22T04:19:42;14.17;;;12.90;;
50066;SDS011;35952;52.524;13.340;2023-06-22T04:22:08;14.60;;;13.30;;
50066;SDS011;35952;52.524;13.340;2023-06-22T04:24:34;12.33;;;11.23;;
50066;SDS011;35952;52.524;13.340;2023-06-22T04:27:00;15.27;;;12.07;;
50066;SDS011;35952;52.524;13.340;2023-06-22T04:29:28;13.17;;;11.50;;
50066;SDS011;35952;52.524;13.340;2023-06-22T04:31:56;11.20;;;10.10;;
50066;SDS011;35952;52.524;13.340;2023-06-22T04:34:23;11.57;;;10.37;;
50066;SDS011;35952;52.524;13.340;2023-06-22T04:36:52;11.17;;;10.17;;
50066;SDS011;35952;52.524;13.340;2023-06-22T04:39:18;12.87;;;10.00;;
50066;SDS011;35952;52.524;13.340;2023-06-22T04:41:43;11.87;;;10.77;;
50066;SDS011;35952;52.524;13.340;2023-06-22T04:46:38;11.30;;;10.00;;
50066;SDS011;35952;52.524;13.340;2023-06-22T04:49:05;10.90;;;9.90;;
50066;SDS011;35952;52.524;13.340;2023-06-22T04:51:36;11.47;;;10.13;;
50066;SDS011;35952;52.524;13.340;2023-06-22T04:54:04;9.83;;;9.03;;
50066;SDS011;35952;52.524;13.340;2023-06-22T04:56:30;9.07;;;8.33;;
50066;SDS011;35952;52.524;13.340;2023-06-22T04:58:56;9.03;;;8.17;;
50066;SDS011;35952;52.524;13.340;2023-06-22T05:01:22;8.70;;;7.70;;
50066;SDS011;35952;52.524;13.340;2023-06-22T05:03:48;7.93;;;7.30;;
50066;SDS011;35952;52.524;13.340;2023-06-22T05:06:14;7.23;;;6.70;;
50066;SDS011;35952;52.524;13.340;2023-06-22T05:08:40;7.37;;;6.70;;
50066;SDS011;35952;52.524;13.340;2023-06-22T05:11:05;8.77;;;6.50;;
50066;SDS011;35952;52.524;13.340;2023-06-22T05:13:31;8.03;;;7.33;;
50066;SDS011;35952;52.524;13.340;2023-06-22T05:15:57;7.30;;;6.60;;
50066;SDS011;35952;52.524;13.340;2023-06-22T05:18:27;6.67;;;5.73;;
50066;SDS011;35952;52.524;13.340;2023-06-22T05:20:54;7.80;;;7.00;;
50066;SDS011;35952;52.524;13.340;2023-06-22T05:23:19;11.90;;;6.57;;
50066;SDS011;35952;52.524;13.340;2023-06-22T05:25:45;6.60;;;6.03;;
50066;SDS011;35952;52.524;13.340;2023-06-22T05:28:11;6.40;;;5.80;;
50066;SDS011;35952;52.524;13.340;2023-06-22T05:30:37;8.20;;;6.60;;
50066;SDS011;35952;52.524;13.340;2023-06-22T05:33:03;7.37;;;6.27;;
50066;SDS011;35952;52.524;13.340;2023-06-22T05:35:28;6.73;;;5.87;;
50066;SDS011;35952;52.524;13.340;2023-06-22T05:37:54;7.50;;;5.50;;
50066;SDS011;35952;52.524;13.340;2023-06-22T05:40:20;9.53;;;5.80;;
50066;SDS011;35952;52.524;13.340;2023-06-22T05:42:46;7.30;;;6.10;;
50066;SDS011;35952;52.524;13.340;2023-06-22T05:45:11;10.20;;;5.97;;
50066;SDS011;35952;52.524;13.340;2023-06-22T05:47:37;11.10;;;6.87;;
50066;SDS011;35952;52.524;13.340;2023-06-22T05:50:03;6.70;;;6.10;;
50066;SDS011;35952;52.524;13.340;2023-06-22T05:52:31;7.50;;;5.70;;
50066;SDS011;35952;52.524;13.340;2023-06-22T05:54:57;6.47;;;5.87;;
50066;SDS011;35952;52.524;13.340;2023-06-22T05:57:23;8.70;;;5.97;;
50066;SDS011;35952;52.524;13.340;2023-06-22T05:59:48;6.23;;;5.73;;
50066;SDS011;35952;52.524;13.340;2023-06-22T06:02:14;6.70;;;6.10;;
50066;SDS011;35952;52.524;13.340;2023-06-22T06:04:39;6.83;;;6.23;;
50066;SDS011;35952;52.524;13.340;2023-06-22T06:07:05;6.87;;;6.10;;
50066;SDS011;35952;52.524;13.340;2023-06-22T06:09:31;6.87;;;6.17;;
50066;SDS011;35952;52.524;13.340;2023-06-22T06:11:57;10.67;;;6.87;;
50066;SDS011;35952;52.524;13.340;2023-06-22T06:14:22;7.27;;;6.57;;
50066;SDS011;35952;52.524;13.340;2023-06-22T06:16:48;8.20;;;7.50;;
50066;SDS011;35952;52.524;13.340;2023-06-22T06:19:14;8.57;;;7.77;;
50066;SDS011;35952;52.524;13.340;2023-06-22T06:21:40;6.70;;;6.10;;
50066;SDS011;35952;52.524;13.340;2023-06-22T06:24:05;6.13;;;5.33;;
50066;SDS011;35952;52.524;13.340;2023-06-22T06:26:31;5.83;;;5.10;;
50066;SDS011;35952;52.524;13.340;2023-06-22T06:28:58;9.03;;;6.13;;
50066;SDS011;35952;52.524;13.340;2023-06-22T06:31:25;6.10;;;5.50;;
50066;SDS011;35952;52.524;13.340;2023-06-22T06:33:53;7.80;;;5.37;;
50066;SDS011;35952;52.524;13.340;2023-06-22T06:36:19;7.37;;;6.00;;
50066;SDS011;35952;52.524;13.340;2023-06-22T06:38:45;5.90;;;5.50;;
50066;SDS011;35952;52.524;13.340;2023-06-22T06:41:12;5.73;;;5.10;;
50066;SDS011;35952;52.524;13.340;2023-06-22T06:43:38;5.80;;;5.30;;
50066;SDS011;35952;52.524;13.340;2023-06-22T06:46:04;7.63;;;5.53;;
50066;SDS011;35952;52.524;13.340;2023-06-22T06:48:29;5.73;;;5.20;;
50066;SDS011;35952;52.524;13.340;2023-06-22T06:50:55;6.93;;;4.87;;
50066;SDS011;35952;52.524;13.340;2023-06-22T06:53:20;5.67;;;5.27;;
50066;SDS011;35952;52.524;13.340;2023-06-22T06:55:46;6.87;;;5.90;;
50066;SDS011;35952;52.524;13.340;2023-06-22T06:58:11;5.57;;;5.03;;
50066;SDS011;35952;52.524;13.340;2023-06-22T07:00:38;4.83;;;4.53;;
50066;SDS011;35952;52.524;13.340;2023-06-22T07:03:04;5.90;;;4.47;;
50066;SDS011;35952;52.524;13.340;2023-06-22T07:05:29;6.17;;;4.70;;
50066;SDS011;35952;52.524;13.340;2023-06-22T07:07:55;5.17;;;4.77;;
50066;SDS011;35952;52.524;13.340;2023-06-22T07:10:21;7.90;;;5.10;;
50066;SDS011;35952;52.524;13.340;2023-06-22T07:12:46;7.20;;;4.57;;
50066;SDS011;35952;52.524;13.340;2023-06-22T07:15:13;8.07;;;4.90;;
50066;SDS011;35952;52.524;13.340;2023-06-22T07:17:38;5.50;;;5.00;;
50066;SDS011;35952;52.524;13.340;2023-06-22T07:20:06;6.93;;;5.17;;
50066;SDS011;35952;52.524;13.340;2023-06-22T07:22:37;5.43;;;4.90;;
50066;SDS011;35952;52.524;13.340;2023-06-22T07:25:03;5.77;;;5.17;;
50066;SDS011;35952;52.524;13.340;2023-06-22T07:27:33;5.57;;;4.40;;
50066;SDS011;35952;52.524;13.340;2023-06-22T07:30:22;6.30;;;4.20;;
50066;SDS011;35952;52.524;13.340;2023-06-22T07:32:48;5.53;;;4.90;;
50066;SDS011;35952;52.524;13.340;2023-06-22T07:35:14;4.93;;;4.53;;
50066;SDS011;35952;52.524;13.340;2023-06-22T07:37:41;5.60;;;4.50;;
50066;SDS011;35952;52.524;13.340;2023-06-22T07:40:07;5.30;;;4.83;;
50066;SDS011;35952;52.524;13.340;2023-06-22T07:42:33;4.23;;;3.83;;
50066;SDS011;35952;52.524;13.340;2023-06-22T07:44:59;4.90;;;4.50;;
50066;SDS011;35952;52.524;13.340;2023-06-22T07:47:24;3.97;;;3.67;;
50066;SDS011;35952;52.524;13.340;2023-06-22T07:49:53;7.07;;;3.97;;
50066;SDS011;35952;52.524;13.340;2023-06-22T07:52:19;4.53;;;3.70;;
50066;SDS011;35952;52.524;13.340;2023-06-22T07:54:46;5.53;;;3.80;;
50066;SDS011;35952;52.524;13.340;2023-06-22T07:57:11;5.20;;;4.17;;
50066;SDS011;35952;52.524;13.340;2023-06-22T07:59:37;4.40;;;4.00;;
50066;SDS011;35952;52.524;13.340;2023-06-22T08:02:03;5.37;;;4.70;;
50066;SDS011;35952;52.524;13.340;2023-06-22T08:04:29;3.87;;;3.50;;
50066;SDS011;35952;52.524;13.340;2023-06-22T08:06:56;4.77;;;4.37;;
50066;SDS011;35952;52.524;13.340;2023-06-22T08:09:22;5.30;;;4.80;;
50066;SDS011;35952;52.524;13.340;2023-06-22T08:11:48;6.37;;;4.10;;
50066;SDS011;35952;52.524;13.340;2023-06-22T08:14:14;4.10;;;3.70;;
50066;SDS011;35952;52.524;13.340;2023-06-22T08:16:40;7.57;;;4.37;;
50066;SDS011;35952;52.524;13.340;2023-06-22T08:19:06;4.30;;;3.90;;
50066;SDS011;35952;52.524;13.340;2023-06-22T08:21:32;4.50;;;4.10;;
50066;SDS011;35952;52.524;13.340;2023-06-22T08:23:57;5.10;;;4.37;;
50066;SDS011;35952;52.524;13.340;2023-06-22T08:26:23;7.20;;;4.80;;
50066;SDS011;35952;52.524;13.340;2023-06-22T08:28:48;5.27;;;4.17;;
50066;SDS011;35952;52.524;13.340;2023-06-22T08:31:14;4.80;;;3.90;;
50066;SDS011;35952;52.524;13.340;2023-06-22T08:33:40;3.80;;;3.50;;
50066;SDS011;35952;52.524;13.340;2023-06-22T08:36:08;4.23;;;3.83;;
50066;SDS011;35952;52.524;13.340;2023-06-22T08:38:35;4.63;;;4.23;;
50066;SDS011;35952;52.524;13.340;2023-06-22T08:41:01;6.73;;;4.03;;
50066;SDS011;35952;52.524;13.340;2023-06-22T08:43:26;6.83;;;4.80;;
50066;SDS011;35952;52.524;13.340;2023-06-22T08:45:52;5.63;;;3.77;;
50066;SDS011;35952;52.524;13.340;2023-06-22T08:48:17;6.83;;;4.13;;
50066;SDS011;35952;52.524;13.340;2023-06-22T08:50:43;4.80;;;4.00;;
50066;SDS011;35952;52.524;13.340;2023-06-22T08:53:08;5.90;;;3.90;;
50066;SDS011;35952;52.524;13.340;2023-06-22T08:55:34;8.27;;;5.00;;
50066;SDS011;35952;52.524;13.340;2023-06-22T08:57:59;5.10;;;4.43;;
50066;SDS011;35952;52.524;13.340;2023-06-22T09:00:25;4.60;;;4.27;;
50066;SDS011;35952;52.524;13.340;2023-06-22T09:02:51;4.30;;;3.90;;
50066;SDS011;35952;52.524;13.340;2023-06-22T09:05:17;5.93;;;4.20;;
50066;SDS011;35952;52.524;13.340;2023-06-22T09:07:43;6.70;;;4.43;;
50066;SDS011;35952;52.524;13.340;2023-06-22T09:10:08;5.80;;;4.77;;
50066;SDS011;35952;52.524;13.340;2023-06-22T09:12:34;5.43;;;4.93;;
50066;SDS011;35952;52.524;13.340;2023-06-22T09:15:02;5.77;;;5.37;;
50066;SDS011;35952;52.524;13.340;2023-06-22T09:17:28;5.47;;;4.97;;
50066;SDS011;35952;52.524;13.340;2023-06-22T09:19:53;5.00;;;4.60;;
50066;SDS011;35952;52.524;13.340;2023-06-22T09:22:19;6.63;;;4.27;;
50066;SDS011;35952;52.524;13.340;2023-06-22T09:24:45;4.73;;;4.33;;
50066;SDS011;35952;52.524;13.340;2023-06-22T09:27:10;5.10;;;4.60;;
50066;SDS011;35952;52.524;13.340;2023-06-22T09:29:36;7.30;;;4.63;;
50066;SDS011;35952;52.524;13.340;2023-06-22T09:32:01;4.43;;;4.03;;
50066;SDS011;35952;52.524;13.340;2023-06-22T09:34:27;5.47;;;4.93;;
50066;SDS011;35952;52.524;13.340;2023-06-22T09:36:53;6.07;;;5.30;;
50066;SDS011;35952;52.524;13.340;2023-06-22T09:39:20;4.90;;;4.50;;
50066;SDS011;35952;52.524;13.340;2023-06-22T09:41:45;5.77;;;5.20;;
50066;SDS011;35952;52.524;13.340;2023-06-22T09:44:11;5.40;;;5.00;;
50066;SDS011;35952;52.524;13.340;2023-06-22T09:46:36;7.50;;;4.67;;
50066;SDS011;35952;52.524;13.340;2023-06-22T09:49:02;8.30;;;4.63;;
50066;SDS011;35952;52.524;13.340;2023-06-22T09:51:27;4.80;;;4.40;;
50066;SDS011;35952;52.524;13.340;2023-06-22T09:53:53;5.13;;;4.40;;
50066;SDS011;35952;52.524;13.340;2023-06-22T09:56:19;4.33;;;4.03;;
50066;SDS011;35952;52.524;13.340;2023-06-22T09:58:45;5.70;;;5.20;;
50066;SDS011;35952;52.524;13.340;2023-06-22T10:01:11;5.27;;;4.77;;
50066;SDS011;35952;52.524;13.340;2023-06-22T10:03:39;4.97;;;4.50;;
50066;SDS011;35952;52.524;13.340;2023-06-22T10:06:06;6.30;;;4.83;;
50066;SDS011;35952;52.524;13.340;2023-06-22T10:08:31;5.63;;;5.13;;
50066;SDS011;35952;52.524;13.340;2023-06-22T10:10:58;7.87;;;6.70;;
50066;SDS011;35952;52.524;13.340;2023-06-22T10:13:23;5.03;;;4.63;;
50066;SDS011;35952;52.524;13.340;2023-06-22T10:15:49;5.60;;;5.10;;
50066;SDS011;35952;52.524;13.340;2023-06-22T10:18:17;5.73;;;5.33;;
50066;SDS011;35952;52.524;13.340;2023-06-22T10:20:43;5.80;;;5.40;;
50066;SDS011;35952;52.524;13.340;2023-06-22T10:23:08;5.63;;;5.13;;
50066;SDS011;35952;52.524;13.340;2023-06-22T10:25:34;6.03;;;5.53;;
50066;SDS011;35952;52.524;13.340;2023-06-22T10:27:59;6.37;;;5.77;;
50066;SDS011;35952;52.524;13.340;2023-06-22T10:30:25;5.70;;;5.30;;
50066;SDS011;35952;52.524;13.340;2023-06-22T10:32:50;6.17;;;5.67;;
50066;SDS011;35952;52.524;13.340;2023-06-22T10:35:16;8.07;;;5.47;;
50066;SDS011;35952;52.524;13.340;2023-06-22T10:37:42;6.03;;;5.43;;
50066;SDS011;35952;52.524;13.340;2023-06-22T10:40:09;6.03;;;5.53;;
50066;SDS011;35952;52.524;13.340;2023-06-22T10:42:35;6.30;;;5.70;;
50066;SDS011;35952;52.524;13.340;2023-06-22T10:45:00;9.40;;;5.00;;
50066;SDS011;35952;52.524;13.340;2023-06-22T10:47:26;7.03;;;6.53;;
50066;SDS011;35952;52.524;13.340;2023-06-22T10:49:51;8.00;;;5.67;;
50066;SDS011;35952;52.524;13.340;2023-06-22T10:52:17;9.10;;;8.30;;
50066;SDS011;35952;52.524;13.340;2023-06-22T10:54:42;6.90;;;5.70;;
50066;SDS011;35952;52.524;13.340;2023-06-22T10:57:08;6.37;;;5.77;;
50066;SDS011;35952;52.524;13.340;2023-06-22T10:59:33;5.57;;;5.10;;
50066;SDS011;35952;52.524;13.340;2023-06-22T11:01:59;6.50;;;5.80;;
50066;SDS011;35952;52.524;13.340;2023-06-22T11:04:24;5.83;;;5.30;;
50066;SDS011;35952;52.524;13.340;2023-06-22T11:06:50;6.73;;;5.43;;
50066;SDS011;35952;52.524;13.340;2023-06-22T11:09:16;4.90;;;4.60;;
50066;SDS011;35952;52.524;13.340;2023-06-22T11:11:45;5.87;;;5.37;;
50066;SDS011;35952;52.524;13.340;2023-06-22T11:14:11;5.80;;;5.27;;
50066;SDS011;35952;52.524;13.340;2023-06-22T11:16:37;7.20;;;5.80;;
50066;SDS011;35952;52.524;13.340;2023-06-22T11:19:04;7.47;;;6.37;;
50066;SDS011;35952;52.524;13.340;2023-06-22T11:21:30;18.00;;;9.60;;
50066;SDS011;35952;52.524;13.340;2023-06-22T11:23:56;6.33;;;5.67;;
50066;SDS011;35952;52.524;13.340;2023-06-22T11:26:22;6.00;;;5.60;;
50066;SDS011;35952;52.524;13.340;2023-06-22T11:28:47;6.13;;;5.63;;
50066;SDS011;35952;52.524;13.340;2023-06-22T11:31:13;9.03;;;6.57;;
50066;SDS011;35952;52.524;13.340;2023-06-22T11:33:39;8.30;;;7.40;;
50066;SDS011;35952;52.524;13.340;2023-06-22T11:36:04;7.83;;;7.03;;
50066;SDS011;35952;52.524;13.340;2023-06-22T11:38:30;10.90;;;10.00;;
50066;SDS011;35952;52.524;13.340;2023-06-22T11:40:57;8.13;;;7.50;;
50066;SDS011;35952;52.524;13.340;2023-06-22T11:43:23;9.17;;;8.37;;
50066;SDS011;35952;52.524;13.340;2023-06-22T11:45:48;8.93;;;8.13;;
50066;SDS011;35952;52.524;13.340;2023-06-22T11:48:14;6.70;;;6.10;;
50066;SDS011;35952;52.524;13.340;2023-06-22T11:50:40;6.93;;;6.33;;
50066;SDS011;35952;52.524;13.340;2023-06-22T11:53:05;6.00;;;5.50;;
50066;SDS011;35952;52.524;13.340;2023-06-22T11:55:31;9.60;;;8.80;;
50066;SDS011;35952;52.524;13.340;2023-06-22T11:57:57;6.30;;;5.80;;
50066;SDS011;35952;52.524;13.340;2023-06-22T12:00:25;6.23;;;5.63;;
50066;SDS011;35952;52.524;13.340;2023-06-22T12:02:51;7.50;;;6.20;;
50066;SDS011;35952;52.524;13.340;2023-06-22T12:05:20;6.83;;;6.23;;
50066;SDS011;35952;52.524;13.340;2023-06-22T12:07:49;5.90;;;5.30;;
50066;SDS011;35952;52.524;13.340;2023-06-22T12:10:17;5.63;;;5.23;;
50066;SDS011;35952;52.524;13.340;2023-06-22T12:12:43;6.00;;;5.50;;
50066;SDS011;35952;52.524;13.340;2023-06-22T12:15:09;5.93;;;5.47;;
50066;SDS011;35952;52.524;13.340;2023-06-22T12:17:35;6.43;;;5.90;;
50066;SDS011;35952;52.524;13.340;2023-06-22T12:20:01;6.97;;;6.37;;
50066;SDS011;35952;52.524;13.340;2023-06-22T12:22:30;6.53;;;6.03;;
50066;SDS011;35952;52.524;13.340;2023-06-22T12:24:59;8.20;;;7.47;;
50066;SDS011;35952;52.524;13.340;2023-06-22T12:27:25;5.83;;;5.43;;
50066;SDS011;35952;52.524;13.340;2023-06-22T12:29:51;7.10;;;6.50;;
50066;SDS011;35952;52.524;13.340;2023-06-22T12:32:16;9.83;;;9.03;;
50066;SDS011;35952;52.524;13.340;2023-06-22T12:34:42;7.03;;;6.33;;
50066;SDS011;35952;52.524;13.340;2023-06-22T12:37:08;5.80;;;5.27;;
50066;SDS011;35952;52.524;13.340;2023-06-22T12:39:34;7.13;;;6.43;;
50066;SDS011;35952;52.524;13.340;2023-06-22T12:42:00;7.60;;;6.77;;
50066;SDS011;35952;52.524;13.340;2023-06-22T12:44:26;9.13;;;8.23;;
50066;SDS011;35952;52.524;13.340;2023-06-22T12:46:51;9.90;;;9.10;;
50066;SDS011;35952;52.524;13.340;2023-06-22T12:49:17;7.53;;;6.00;;
50066;SDS011;35952;52.524;13.340;2023-06-22T12:51:43;6.50;;;5.90;;
50066;SDS011;35952;52.524;13.340;2023-06-22T12:54:09;6.13;;;5.53;;
50066;SDS011;35952;52.524;13.340;2023-06-22T12:56:36;6.50;;;6.00;;
50066;SDS011;35952;52.524;13.340;2023-06-22T12:59:02;6.50;;;6.00;;
50066;SDS011;35952;52.524;13.340;2023-06-22T13:01:29;10.23;;;9.23;;
50066;SDS011;35952;52.524;13.340;2023-06-22T13:03:58;12.07;;;10.80;;
50066;SDS011;35952;52.524;13.340;2023-06-22T13:06:23;10.33;;;9.53;;
50066;SDS011;35952;52.524;13.340;2023-06-22T13:08:49;12.57;;;11.47;;
50066;SDS011;35952;52.524;13.340;2023-06-22T13:11:15;8.90;;;8.10;;
50066;SDS011;35952;52.524;13.340;2023-06-22T13:13:40;6.57;;;5.90;;
50066;SDS011;35952;52.524;13.340;2023-06-22T13:16:06;8.90;;;8.20;;
50066;SDS011;35952;52.524;13.340;2023-06-22T13:18:32;7.37;;;6.77;;
50066;SDS011;35952;52.524;13.340;2023-06-22T13:21:03;6.20;;;5.70;;
50066;SDS011;35952;52.524;13.340;2023-06-22T13:23:30;7.30;;;6.00;;
50066;SDS011;35952;52.524;13.340;2023-06-22T13:25:58;7.77;;;6.93;;
50066;SDS011;35952;52.524;13.340;2023-06-22T13:28:25;14.73;;;13.40;;
50066;SDS011;35952;52.524;13.340;2023-06-22T13:30:50;15.23;;;13.83;;
50066;SDS011;35952;52.524;13.340;2023-06-22T13:33:17;9.20;;;7.33;;
50066;SDS011;35952;52.524;13.340;2023-06-22T13:35:46;7.97;;;7.30;;
50066;SDS011;35952;52.524;13.340;2023-06-22T13:38:12;10.27;;;8.97;;
50066;SDS011;35952;52.524;13.340;2023-06-22T13:40:37;12.97;;;11.87;;
50066;SDS011;35952;52.524;13.340;2023-06-22T13:43:03;7.43;;;6.83;;
50066;SDS011;35952;52.524;13.340;2023-06-22T13:45:30;6.93;;;6.43;;
50066;SDS011;35952;52.524;13.340;2023-06-22T13:47:57;6.03;;;5.53;;
50066;SDS011;35952;52.524;13.340;2023-06-22T13:50:23;6.97;;;6.30;;
50066;SDS011;35952;52.524;13.340;2023-06-22T13:52:48;9.37;;;8.67;;
50066;SDS011;35952;52.524;13.340;2023-06-22T13:55:14;6.97;;;6.47;;
50066;SDS011;35952;52.524;13.340;2023-06-22T13:57:40;9.30;;;7.10;;
50066;SDS011;35952;52.524;13.340;2023-06-22T14:00:06;5.10;;;4.70;;
50066;SDS011;35952;52.524;13.340;2023-06-22T14:02:35;10.50;;;5.20;;
50066;SDS011;35952;52.524;13.340;2023-06-22T14:05:01;6.30;;;5.70;;
50066;SDS011;35952;52.524;13.340;2023-06-22T14:07:27;5.00;;;4.60;;
50066;SDS011;35952;52.524;13.340;2023-06-22T14:09:53;6.10;;;5.60;;
50066;SDS011;35952;52.524;13.340;2023-06-22T14:12:18;6.00;;;5.60;;
50066;SDS011;35952;52.524;13.340;2023-06-22T14:14:47;5.90;;;5.27;;
50066;SDS011;35952;52.524;13.340;2023-06-22T14:17:20;6.37;;;5.77;;
50066;SDS011;35952;52.524;13.340;2023-06-22T14:19:50;8.30;;;6.70;;
50066;SDS011;35952;52.524;13.340;2023-06-22T14:22:20;6.90;;;6.30;;
50066;SDS011;35952;52.524;13.340;2023-06-22T14:24:47;10.80;;;8.50;;
50066;SDS011;35952;52.524;13.340;2023-06-22T14:27:13;7.20;;;6.57;;
50066;SDS011;35952;52.524;13.340;2023-06-22T14:29:38;5.97;;;5.57;;